Latest Coastal Weather Observations for Portland Harbour

IDV60701

Issued at 6:32 pm EST Friday 23 June 2017 (issued every 10 minutes, with the page automatically refreshed every 10 minutes)

About coastal observations | Map of coastal stations | Coastal observations for VIC | Marine services | Other Formats
Station Details ID: 090192 Name: PORTLAND NTC AWS Lat: -38.34 Lon: 141.61 Height: 0.0 m
Data from the previous 72 hours. | See also: Recent months for locations in Victoria
Date/Time
EST
Temp
°C
Wind Pressure Rain since
9am
mm
Weather Cloud Vis
km
Sea
Height
m
Swell
Dir  Spd
kts
Gust
kts
hPa Trend Height
m
Period
s
Dir
23/06:30pm 12.0 W 7 11 1013.6 - - - - - - - - -
23/06:00pm 12.0 WSW 12 16 1013.4 - - - - - - - - -
23/05:30pm 12.3 SW 11 17 1013.3 - - - - - - - - -
23/05:00pm 12.7 SW 18 25 1013.3 - - - - - - - - -
23/04:30pm 15.0 W 14 19 1012.6 - - - - - - - - -
23/04:00pm 15.3 W 14 24 1012.6 - - - - - - - - -
23/03:30pm 15.5 W 15 22 1012.6 - - - - - - - - -
23/03:00pm 15.1 W 12 18 1012.6 - - - - - - - - -
23/02:30pm 15.0 W 12 17 1012.6 - - - - - - - - -
23/02:00pm 14.1 WNW 8 13 1012.8 - - - - - - - - -
23/01:30pm 14.1 NW 13 19 1012.9 - - - - - - - - -
23/01:00pm 13.5 NW 13 18 1013.1 - - - - - - - - -
23/12:30pm 13.2 NW 13 20 1013.4 - - - - - - - - -
23/12:00pm 11.7 NNW 11 16 1013.8 - - - - - - - - -
23/11:30am 10.7 NNW 14 19 1014.3 - - - - - - - - -
23/11:00am 11.5 NW 8 11 1014.7 - - - - - - - - -
23/10:30am 11.1 NW 9 14 1014.9 - - - - - - - - -
23/10:00am 10.6 NW 10 15 1015.2 - - - - - - - - -
23/09:30am 9.9 NW 10 15 1015.3 - - - - - - - - -
23/09:00am 9.5 NW 10 14 1015.4 - - - - - - - - -
23/08:30am 9.6 NNW 15 18 1014.9 - - - - - - - - -
23/08:00am 8.8 NW 7 12 1015.6 - - - - - - - - -
23/07:30am 9.3 NNW 9 13 1015.6 - - - - - - - - -
23/07:00am 9.2 NW 8 11 1015.8 - - - - - - - - -
23/06:30am 9.7 NNW 12 16 1015.7 - - - - - - - - -
23/06:00am 9.7 NNW 13 17 1015.8 - - - - - - - - -
23/05:30am 9.9 NNW 13 17 1015.9 - - - - - - - - -
23/05:00am 10.0 NNW 12 18 1016.1 - - - - - - - - -
23/04:30am 10.2 NNW 12 17 1016.5 - - - - - - - - -
23/04:00am 10.1 NNW 12 16 1016.6 - - - - - - - - -
23/03:30am 9.9 NNW 11 14 1017.0 - - - - - - - - -
23/03:00am 9.6 NW 8 11 1017.5 - - - - - - - - -
23/02:30am 9.2 NW 5 8 1017.9 - - - - - - - - -
23/02:00am 8.9 WNW 5 9 1018.1 - - - - - - - - -
23/01:30am 9.8 NW 5 8 1018.4 - - - - - - - - -
23/01:00am 9.4 WSW 3 4 1018.8 - - - - - - - - -
23/12:30am 10.7 NW 7 10 1018.9 - - - - - - - - -
23/12:00am 9.6 WNW 4 6 1019.6 - - - - - - - - -
 
Date/Time
EST
Temp
°C
Wind Pressure Rain since
9am
mm
Weather Cloud Vis
km
Sea
Height
m
Swell
Dir  Spd
kts
Gust
kts
hPa Trend Height
m
Period
s
Dir
22/11:30pm 9.8 WNW 4 6 1019.9 - - - - - - - - -
22/11:00pm 10.7 NW 4 9 1020.2 - - - - - - - - -
22/10:30pm 11.4 NNW 8 10 1020.5 - - - - - - - - -
22/10:00pm 11.5 NNW 6 7 1020.8 - - - - - - - - -
22/09:30pm 11.3 NW 5 7 1021.3 - - - - - - - - -
22/09:00pm 12.0 NNW 6 7 1021.4 - - - - - - - - -
22/08:30pm 12.1 NW 6 11 1021.5 - - - - - - - - -
22/08:00pm 12.5 NW 7 9 1021.5 - - - - - - - - -
22/07:30pm 12.9 NW 9 12 1021.5 - - - - - - - - -
22/07:00pm 12.9 NW 7 9 1021.6 - - - - - - - - -
22/06:30pm 13.2 NNW 6 7 1021.8 - - - - - - - - -
22/06:00pm 13.8 NNW 6 8 1021.9 - - - - - - - - -
22/05:30pm 14.0 NNW 6 8 1021.9 - - - - - - - - -
22/05:00pm 14.3 NNW 8 11 1021.8 - - - - - - - - -
22/04:30pm 14.6 NNW 7 10 1021.9 - - - - - - - - -
22/04:00pm 14.7 NNW 11 13 1021.8 - - - - - - - - -
22/03:30pm 14.9 NNW 12 15 1021.8 - - - - - - - - -
22/03:00pm 14.7 NW 11 15 1022.2 - - - - - - - - -
22/02:30pm 14.8 NW 10 14 1022.5 - - - - - - - - -
22/02:00pm 15.1 NNW 7 14 1023.1 - - - - - - - - -
22/01:30pm 14.5 N 8 10 1023.5 - - - - - - - - -
22/01:00pm 13.8 N 8 10 1024.1 - - - - - - - - -
22/12:30pm 13.6 NNW 5 10 1024.6 - - - - - - - - -
22/12:00pm 13.1 WNW 5 8 1025.3 - - - - - - - - -
22/11:30am 12.2 WNW 3 5 1025.8 - - - - - - - - -
22/11:00am 11.7 N 10 12 1026.0 - - - - - - - - -
22/10:30am 11.4 NNW 7 9 1026.4 - - - - - - - - -
22/10:00am 11.2 NNW 5 7 1026.4 - - - - - - - - -
22/09:30am 10.4 WNW 1 3 1026.4 - - - - - - - - -
22/09:00am 10.4 NNW 6 9 1026.5 - - - - - - - - -
22/08:30am 10.9 N 7 9 1026.6 - - - - - - - - -
22/08:00am 11.0 NNW 2 3 1026.6 - - - - - - - - -
22/07:30am 10.9 NNW 4 7 1026.4 - - - - - - - - -
22/07:00am 10.1 W 3 3 1026.6 - - - - - - - - -
22/06:30am 10.0 SW 3 4 1026.4 - - - - - - - - -
22/06:00am 10.4 WNW 3 4 1026.4 - - - - - - - - -
22/05:30am 10.4 W 2 3 1026.3 - - - - - - - - -
22/05:00am 10.4 WNW 2 3 1026.4 - - - - - - - - -
22/04:30am 10.1 WSW 2 4 1026.4 - - - - - - - - -
22/04:00am 9.9 WSW 4 5 1026.7 - - - - - - - - -
22/03:30am 10.0 W 2 3 1026.6 - - - - - - - - -
22/03:00am 9.7 W 2 4 1027.0 - - - - - - - - -
22/02:30am 10.0 WSW 1 2 1026.9 - - - - - - - - -
22/02:00am 9.7 SW 4 6 1027.1 - - - - - - - - -
22/01:30am 10.1 SW 1 2 1027.1 - - - - - - - - -
22/01:00am 10.0 W 2 3 1027.4 - - - - - - - - -
22/12:30am 10.3 W 2 3 1027.8 - - - - - - - - -
22/12:00am 10.1 W 4 5 1028.1 - - - - - - - - -
 
Date/Time
EST
Temp
°C
Wind Pressure Rain since
9am
mm
Weather Cloud Vis
km
Sea
Height
m
Swell
Dir  Spd
kts
Gust
kts
hPa Trend Height
m
Period
s
Dir
21/11:30pm 10.4 W 3 3 1028.1 - - - - - - - - -
21/11:00pm 10.8 W 2 3 1028.3 - - - - - - - - -
21/10:30pm 10.9 W 1 2 1028.5 - - - - - - - - -
21/10:00pm 10.8 WSW 3 4 1028.8 - - - - - - - - -
21/09:30pm 11.3 WNW 1 3 1028.7 - - - - - - - - -
21/09:00pm 11.3 WNW 5 5 1029.0 - - - - - - - - -
21/08:30pm 11.6 WNW 3 4 1029.0 - - - - - - - - -
21/08:00pm 11.8 W 3 5 1028.9 - - - - - - - - -
21/07:30pm 13.1 ESE 4 5 1028.6 - - - - - - - - -
21/07:00pm 13.1 E 5 7 1028.4 - - - - - - - - -
21/06:30pm 13.2 E 4 7 1028.3 - - - - - - - - -
21/06:00pm 12.7 SSE 3 4 1028.3 - - - - - - - - -
21/05:30pm 12.7 SSW 3 4 1028.2 - - - - - - - - -
21/05:00pm 12.9 SSE 4 6 1028.1 - - - - - - - - -
21/04:30pm 13.0 S 3 4 1028.0 - - - - - - - - -
21/04:00pm 13.1 WSW 2 4 1028.0 - - - - - - - - -
21/03:30pm 13.1 W 3 5 1028.1 - - - - - - - - -
21/03:00pm 13.0 SSW 6 11 1028.1 - - - - - - - - -
21/02:30pm 13.2 SSW 4 6 1028.0 - - - - - - - - -
21/02:00pm 13.2 SSW 4 6 1028.3 - - - - - - - - -
21/01:30pm 13.2 SSE 5 7 1028.2 - - - - - - - - -
21/01:00pm 13.1 SSW 5 6 1028.4 - - - - - - - - -
21/12:30pm 13.3 SSW 7 9 1028.7 - - - - - - - - -
21/12:00pm 13.2 SW 5 6 1029.0 - - - - - - - - -
21/11:30am 13.2 SSW 3 5 1029.2 - - - - - - - - -
21/11:00am 13.2 S 4 5 1029.2 - - - - - - - - -
21/10:30am 13.0 SSE 4 6 1029.1 - - - - - - - - -
21/10:00am 12.7 S 2 4 1029.0 - - - - - - - - -
21/09:30am 12.5 SW 2 3 1028.7 - - - - - - - - -
21/09:00am 11.9 SW 2 3 1028.5 - - - - - - - - -
21/08:30am 12.1 SW 2 3 1028.4 - - - - - - - - -
21/08:00am 12.3 SSE 6 8 1028.0 - - - - - - - - -
21/07:30am 11.8 W 2 3 1027.9 - - - - - - - - -
21/07:00am 12.1 SW 2 3 1027.7 - - - - - - - - -
21/06:30am 12.2 SSW 5 6 1027.2 - - - - - - - - -
21/06:00am 12.3 SSW 3 4 1027.0 - - - - - - - - -
21/05:30am 12.1 SW 1 2 1026.8 - - - - - - - - -
21/05:00am 12.2 SW 3 4 1026.7 - - - - - - - - -
21/04:30am 12.3 SW 3 4 1026.3 - - - - - - - - -
21/04:00am 12.6 SW 3 5 1026.1 - - - - - - - - -
21/03:30am 12.4 SSW 4 5 1026.0 - - - - - - - - -
21/03:00am 12.6 SW 4 6 1025.9 - - - - - - - - -
21/02:30am 12.0 WSW 4 6 1025.8 - - - - - - - - -
21/02:00am 12.0 WSW 4 5 1025.5 - - - - - - - - -
21/01:30am 12.5 WNW 4 6 1025.3 - - - - - - - - -
21/01:00am 12.3 WNW 4 5 1025.3 - - - - - - - - -
21/12:30am 12.5 SW 6 7 1025.2 - - - - - - - - -
21/12:00am 11.8 SW 4 7 1025.1 - - - - - - - - -
 
Date/Time
EST
Temp
°C
Wind Pressure Rain since
9am
mm
Weather Cloud Vis
km
Sea
Height
m
Swell
Dir  Spd
kts
Gust
kts
hPa Trend Height
m
Period
s
Dir
20/11:30pm 12.1 SSW 11 18 1025.1 - - - - - - - - -
20/11:00pm 12.6 SSW 9 14 1024.8 - - - - - - - - -
20/10:30pm 12.9 W 10 15 1024.4 - - - - - - - - -
20/10:00pm 13.4 NW 11 16 1024.0 - - - - - - - - -
20/09:30pm 13.5 NW 9 14 1024.0 - - - - - - - - -
20/09:00pm 13.5 NW 8 13 1023.8 - - - - - - - - -
20/08:30pm 13.6 NW 9 13 1023.9 - - - - - - - - -
20/08:00pm 13.6 NW 9 14 1023.8 - - - - - - - - -
20/07:30pm 13.7 NW 9 14 1023.5 - - - - - - - - -
20/07:00pm 14.1 NW 9 14 1023.4 - - - - - - - - -

Other Formats:

Comma delimited format used in spreadsheet applications
http://www.bom.gov.au/fwo/IDV60701/IDV60701.95826.axf

JavaScript Object Notation format (JSON) in row-major order
http://www.bom.gov.au/fwo/IDV60701/IDV60701.95826.json